BGKK

Kulusuk Airport

Kulusuk, Greenland
TAF BGKK 251357Z 2515/2524 30005KT 9999 -RA SCT008 BKN050 TEMPO 2515/2517 FEW003 BKN008 TEMPO 2517/2524 SCT030
Issued Valid From Valid To
Jun-25 @ 13:57 UTC
(2 hours ago)
Jun-25 @ 15:00 UTC
(47 minutes ago)
Jun-26 @ 00:00 UTC
(in 8 hours)
Jun-25 @ 15:00 to Jun-26 @ 00:00
TAF BGKK 251357Z 2515/2524 30005KT 9999 -RA SCT008 BKN050
Wind Visibility Clouds Conditions
300° at 5 knots 10,000+ meters
  • Scattered at 800' AGL
  • Broken at 5,000' AGL
  • Light Rain
Temporary Jun-25 @ 15:00 to Jun-25 @ 17:00
TEMPO 2515/2517 FEW003 BKN008
Clouds
  • Few at 300' AGL
  • Broken at 800' AGL
Temporary Jun-25 @ 17:00 to Jun-26 @ 00:00
TEMPO 2517/2524 SCT030
Clouds
  • Scattered at 3,000' AGL
TAF BGKK 251357Z 2515/2524 30005KT 9999 -RA SCT008 BKN050 TEMPO 2515/2517 FEW003 BKN008 TEMPO 2517/2524 SCT030
Issued Jun-25 @ 13:57 UTC
(2 hours ago)
Valid From Jun-25 @ 15:00 UTC
(47 minutes ago)
Valid To Jun-26 @ 00:00 UTC
(in 8 hours)
Jun-25 @ 15:00 - Jun-26 @ 00:00
Wind Visibility
300° at 5 knots 10,000+ meters
Clouds
  • Scattered at 800' AGL
  • Broken at 5,000' AGL
Conditions
  • Light Rain
Temporary Jun-25 @ 15:00 - Jun-25 @ 17:00
Clouds
  • Few at 300' AGL
  • Broken at 800' AGL
Temporary Jun-25 @ 17:00 - Jun-26 @ 00:00
Clouds
  • Scattered at 3,000' AGL